createdAt,value
2022-09-04T00:00:47.697Z,14.07
2022-09-04T00:01:47.685Z,14.07
2022-09-04T00:02:47.676Z,14.12
2022-09-04T00:03:47.826Z,14.10
2022-09-04T00:04:47.815Z,14.02
2022-09-04T00:05:47.643Z,14.03
2022-09-04T00:06:47.630Z,13.89
2022-09-04T00:07:47.621Z,14.00
2022-09-04T00:08:47.606Z,13.95
2022-09-04T00:09:47.599Z,13.97
2022-09-04T00:10:47.605Z,13.89
2022-09-04T00:11:47.578Z,13.84
2022-09-04T00:12:47.585Z,13.81
2022-09-04T00:13:47.548Z,13.88
2022-09-04T00:14:47.568Z,13.88
2022-09-04T00:15:47.526Z,13.82
2022-09-04T00:16:47.543Z,13.87
2022-09-04T00:17:47.513Z,13.85
2022-09-04T00:18:47.494Z,13.88
2022-09-04T00:19:47.504Z,13.71
2022-09-04T00:20:47.470Z,13.73
2022-09-04T00:21:47.457Z,13.75
2022-09-04T00:22:47.449Z,13.66
2022-09-04T00:23:47.434Z,13.57
2022-09-04T00:24:47.448Z,13.67
2022-09-04T00:25:47.443Z,13.54
2022-09-04T00:26:47.403Z,13.62
2022-09-04T00:27:47.389Z,13.54
2022-09-04T00:28:47.401Z,13.49
2022-09-04T00:29:47.366Z,13.59
2022-09-04T00:30:47.457Z,13.57
2022-09-04T00:31:47.345Z,13.49
2022-09-04T00:32:47.335Z,13.54
2022-09-04T00:33:47.324Z,13.48
2022-09-04T00:34:47.333Z,13.55
2022-09-04T00:35:47.298Z,13.46
2022-09-04T00:36:50.267Z,13.46
2022-09-04T00:37:47.282Z,13.46
2022-09-04T00:38:47.266Z,13.45
2022-09-04T00:39:47.314Z,13.52
2022-09-04T00:40:47.266Z,13.44
2022-09-04T00:41:47.254Z,13.45
2022-09-04T00:42:47.221Z,13.41
2022-09-04T00:43:47.208Z,13.38
2022-09-04T00:44:47.200Z,13.28
2022-09-04T00:45:47.211Z,13.32
2022-09-04T00:46:47.197Z,13.29
2022-09-04T00:47:47.164Z,13.26
2022-09-04T00:48:47.173Z,13.29
2022-09-04T00:49:47.138Z,13.28
2022-09-04T00:50:47.131Z,13.25
2022-09-04T00:51:47.120Z,13.28
2022-09-04T00:52:47.127Z,13.30
2022-09-04T00:53:47.115Z,13.32
2022-09-04T00:54:47.086Z,13.25
2022-09-04T00:55:47.071Z,13.23
2022-09-04T00:56:47.061Z,13.32
2022-09-04T00:57:47.048Z,13.19
2022-09-04T00:58:47.060Z,13.30
2022-09-04T00:59:47.025Z,13.25
2022-09-04T01:00:47.088Z,13.29
2022-09-04T01:01:47.160Z,13.20
2022-09-04T01:02:46.994Z,13.11
2022-09-04T01:03:47.000Z,13.12
2022-09-04T01:04:46.991Z,13.17
2022-09-04T01:05:46.959Z,13.14
2022-09-04T01:06:46.947Z,13.07
2022-09-04T01:07:46.935Z,12.97
2022-09-04T01:08:46.925Z,12.97
2022-09-04T01:09:46.932Z,13.01
2022-09-04T01:10:46.901Z,12.96
2022-09-04T01:11:46.892Z,12.95
2022-09-04T01:12:46.879Z,12.96
2022-09-04T01:13:46.870Z,13.10
2022-09-04T01:14:49.110Z,12.97
2022-09-04T01:15:47.844Z,13.01
2022-09-04T01:16:46.884Z,13.00
2022-09-04T01:17:46.844Z,12.92
2022-09-04T01:18:46.811Z,13.01
2022-09-04T01:19:46.799Z,12.93
2022-09-04T01:20:46.789Z,12.96
2022-09-04T01:21:46.776Z,12.92
2022-09-04T01:22:46.791Z,12.87
2022-09-04T01:23:46.775Z,12.95
2022-09-04T01:24:46.744Z,12.92
2022-09-04T01:25:46.731Z,12.82
2022-09-04T01:26:46.722Z,12.92
2022-09-04T01:27:46.707Z,12.89
2022-09-04T01:28:46.720Z,12.79
2022-09-04T01:29:46.685Z,12.86
2022-09-04T01:30:46.675Z,12.87
2022-09-04T01:31:47.037Z,12.85
2022-09-04T01:32:46.654Z,12.75
2022-09-04T01:33:46.640Z,12.85
2022-09-04T01:34:46.629Z,12.78
2022-09-04T01:35:46.619Z,12.74
2022-09-04T01:36:46.606Z,12.70
2022-09-04T01:37:46.616Z,12.72
2022-09-04T01:38:46.585Z,12.78
2022-09-04T01:39:46.697Z,12.74
2022-09-04T01:40:46.563Z,12.75
2022-09-04T01:41:46.562Z,12.77
2022-09-04T01:42:46.543Z,12.79
2022-09-04T01:43:46.527Z,12.78
2022-09-04T01:44:46.537Z,12.78
2022-09-04T01:45:46.684Z,12.77
2022-09-04T01:46:46.495Z,12.77
2022-09-04T01:47:46.481Z,12.70
2022-09-04T01:48:46.473Z,12.71
2022-09-04T01:49:46.501Z,12.72
2022-09-04T01:50:46.470Z,12.70
2022-09-04T01:51:46.444Z,12.77
2022-09-04T01:52:46.450Z,12.65
2022-09-04T01:53:46.415Z,12.67
2022-09-04T01:54:46.403Z,12.57
2022-09-04T01:55:46.459Z,12.64
2022-09-04T01:56:46.379Z,12.62
2022-09-04T01:57:46.423Z,12.53
2022-09-04T01:58:46.377Z,12.47
2022-09-04T01:59:47.069Z,12.50
2022-09-04T02:00:46.473Z,12.60
2022-09-04T02:01:46.392Z,12.49
2022-09-04T02:02:46.313Z,12.54
2022-09-04T02:03:46.693Z,12.50
2022-09-04T02:04:46.288Z,12.45
2022-09-04T02:05:46.284Z,12.50
2022-09-04T02:06:46.267Z,12.32
2022-09-04T02:07:46.278Z,12.41
2022-09-04T02:08:46.242Z,12.41
2022-09-04T02:09:46.232Z,12.37
2022-09-04T02:10:46.221Z,12.35
2022-09-04T02:11:46.235Z,12.38
2022-09-04T02:12:46.215Z,12.39
2022-09-04T02:13:46.439Z,12.38
2022-09-04T02:14:46.174Z,12.28
2022-09-04T02:15:46.189Z,12.38
2022-09-04T02:16:46.237Z,12.38
2022-09-04T02:17:46.142Z,12.39
2022-09-04T02:18:46.154Z,12.41
2022-09-04T02:19:46.127Z,12.37
2022-09-04T02:20:46.107Z,12.34
2022-09-04T02:21:46.099Z,12.42
2022-09-04T02:22:46.083Z,12.32
2022-09-04T02:23:46.104Z,12.29
2022-09-04T02:24:46.062Z,12.24
2022-09-04T02:25:46.051Z,12.27
2022-09-04T02:26:46.060Z,12.24
2022-09-04T02:27:46.032Z,12.17
2022-09-04T02:28:46.034Z,12.17
2022-09-04T02:29:46.007Z,12.21
2022-09-04T02:30:46.014Z,12.16
2022-09-04T02:31:47.110Z,12.10
2022-09-04T02:32:45.972Z,12.13
2022-09-04T02:33:45.962Z,12.24
2022-09-04T02:34:45.973Z,12.23
2022-09-04T02:35:45.939Z,12.23
2022-09-04T02:36:45.929Z,12.21
2022-09-04T02:37:45.921Z,12.27
2022-09-04T02:38:45.902Z,12.32
2022-09-04T02:39:46.010Z,12.35
2022-09-04T02:40:45.930Z,12.32
2022-09-04T02:41:45.881Z,12.31
2022-09-04T02:42:45.857Z,12.31
2022-09-04T02:43:45.870Z,12.37
2022-09-04T02:44:45.836Z,12.42
2022-09-04T02:45:45.828Z,12.47
2022-09-04T02:46:45.835Z,12.45
2022-09-04T02:47:45.805Z,12.45
2022-09-04T02:48:45.791Z,12.50
2022-09-04T02:49:45.817Z,12.39
2022-09-04T02:50:45.769Z,12.49
2022-09-04T02:51:45.793Z,12.34
2022-09-04T02:52:45.748Z,12.41
2022-09-04T02:53:45.736Z,12.34
2022-09-04T02:54:45.722Z,12.29
2022-09-04T02:55:45.732Z,12.29
2022-09-04T02:56:45.702Z,12.29
2022-09-04T02:57:45.693Z,12.28
2022-09-04T02:58:45.677Z,12.29
2022-09-04T02:59:45.671Z,12.21
2022-09-04T03:00:45.720Z,12.24
2022-09-04T03:01:49.683Z,12.28
2022-09-04T03:02:45.634Z,12.20
2022-09-04T03:03:45.622Z,12.19
2022-09-04T03:04:45.609Z,12.13
2022-09-04T03:05:45.619Z,12.16
2022-09-04T03:06:45.587Z,12.05
2022-09-04T03:07:45.578Z,12.10
2022-09-04T03:08:45.566Z,12.10
2022-09-04T03:09:45.555Z,12.09
2022-09-04T03:10:45.562Z,12.13
2022-09-04T03:11:45.532Z,12.05
2022-09-04T03:12:45.520Z,12.09
2022-09-04T03:13:46.495Z,12.13
2022-09-04T03:14:45.499Z,12.05
2022-09-04T03:15:45.705Z,11.95
2022-09-04T03:16:45.475Z,11.90
2022-09-04T03:17:45.466Z,12.02
2022-09-04T03:18:45.453Z,11.95
2022-09-04T03:19:45.880Z,11.90
2022-09-04T03:20:45.451Z,11.78
2022-09-04T03:21:45.423Z,11.80
2022-09-04T03:22:45.413Z,11.98
2022-09-04T03:23:45.399Z,11.90
2022-09-04T03:24:45.405Z,11.85
2022-09-04T03:25:45.375Z,11.94
2022-09-04T03:26:45.381Z,11.90
2022-09-04T03:27:45.355Z,11.85
2022-09-04T03:28:45.339Z,11.83
2022-09-04T03:29:45.332Z,11.82
2022-09-04T03:30:45.346Z,11.75
2022-09-04T03:31:45.368Z,11.79
2022-09-04T03:32:45.295Z,11.67
2022-09-04T03:33:45.286Z,11.70
2022-09-04T03:34:45.274Z,11.75
2022-09-04T03:35:45.271Z,11.70
2022-09-04T03:36:45.280Z,11.73
2022-09-04T03:37:45.240Z,11.67
2022-09-04T03:38:45.231Z,11.67
2022-09-04T03:39:45.253Z,11.72
2022-09-04T03:40:45.240Z,11.69
2022-09-04T03:41:45.231Z,11.57
2022-09-04T03:42:45.184Z,11.58
2022-09-04T03:43:45.186Z,11.55
2022-09-04T03:44:45.165Z,11.60
2022-09-04T03:45:45.152Z,11.70
2022-09-04T03:46:45.236Z,11.72
2022-09-04T03:47:45.197Z,11.75
2022-09-04T03:48:45.114Z,11.67
2022-09-04T03:49:45.117Z,11.69
2022-09-04T03:50:45.093Z,11.65
2022-09-04T03:51:45.082Z,11.73
2022-09-04T03:52:45.089Z,11.57
2022-09-04T03:53:45.061Z,11.55
2022-09-04T03:54:45.046Z,11.55
2022-09-04T03:55:45.038Z,11.54
2022-09-04T03:56:45.024Z,11.43
2022-09-04T03:57:45.035Z,11.55
2022-09-04T03:58:45.005Z,11.52
2022-09-04T03:59:44.992Z,11.46
2022-09-04T04:00:45.040Z,11.40
2022-09-04T04:01:44.969Z,11.35
2022-09-04T04:02:45.050Z,11.40
2022-09-04T04:03:44.946Z,11.39
2022-09-04T04:04:44.939Z,11.39
2022-09-04T04:05:44.923Z,11.39
2022-09-04T04:06:44.911Z,11.37
2022-09-04T04:07:44.923Z,11.33
2022-09-04T04:08:44.889Z,11.37
2022-09-04T04:09:44.879Z,11.43
2022-09-04T04:10:44.887Z,11.37
2022-09-04T04:11:44.859Z,11.36
2022-09-04T04:12:44.857Z,11.33
2022-09-04T04:13:44.842Z,11.37
2022-09-04T04:14:44.824Z,11.35
2022-09-04T04:15:44.940Z,11.42
2022-09-04T04:16:44.885Z,11.40
2022-09-04T04:17:45.824Z,11.42
2022-09-04T04:18:44.830Z,11.51
2022-09-04T04:19:44.903Z,11.44
2022-09-04T04:20:44.756Z,11.39
2022-09-04T04:21:44.763Z,11.44
2022-09-04T04:22:44.730Z,11.44
2022-09-04T04:23:44.723Z,11.40
2022-09-04T04:24:44.710Z,11.44
2022-09-04T04:25:44.746Z,11.49
2022-09-04T04:26:44.705Z,11.54
2022-09-04T04:27:44.678Z,11.55
2022-09-04T04:28:44.662Z,11.57
2022-09-04T04:29:44.652Z,11.55
2022-09-04T04:30:44.639Z,11.55
2022-09-04T04:31:44.845Z,11.51
2022-09-04T04:32:44.617Z,11.44
2022-09-04T04:33:44.608Z,11.52
2022-09-04T04:34:44.596Z,11.54
2022-09-04T04:35:44.609Z,11.55
2022-09-04T04:36:44.591Z,11.55
2022-09-04T04:37:44.561Z,11.67
2022-09-04T04:38:44.553Z,11.60
2022-09-04T04:39:44.639Z,11.61
2022-09-04T04:40:44.574Z,11.57
2022-09-04T04:41:44.520Z,11.54
2022-09-04T04:42:44.523Z,11.61
2022-09-04T04:43:44.500Z,11.64
2022-09-04T04:44:44.480Z,11.69
2022-09-04T04:45:44.472Z,11.69
2022-09-04T04:46:44.547Z,11.57
2022-09-04T04:47:44.449Z,11.61
2022-09-04T04:48:44.435Z,11.54
2022-09-04T04:49:44.432Z,11.54
2022-09-04T04:50:44.434Z,11.54
2022-09-04T04:51:44.426Z,11.46
2022-09-04T04:52:44.389Z,11.47
2022-09-04T04:53:44.382Z,11.47
2022-09-04T04:54:44.366Z,11.51
2022-09-04T04:55:44.357Z,11.46
2022-09-04T04:56:44.366Z,11.49
2022-09-04T04:57:44.341Z,11.44
2022-09-04T04:58:44.322Z,11.55
2022-09-04T04:59:44.315Z,11.54
2022-09-04T05:00:44.299Z,11.51
2022-09-04T05:01:44.476Z,11.52
2022-09-04T05:02:44.438Z,11.62
2022-09-04T05:03:44.267Z,11.60
2022-09-04T05:04:44.254Z,11.62
2022-09-04T05:05:44.269Z,11.73
2022-09-04T05:06:44.231Z,11.72
2022-09-04T05:07:44.244Z,11.65
2022-09-04T05:08:44.212Z,11.83
2022-09-04T05:09:44.198Z,11.82
2022-09-04T05:10:44.187Z,11.85
2022-09-04T05:11:44.177Z,11.98
2022-09-04T05:12:44.165Z,12.02
2022-09-04T05:13:44.175Z,12.04
2022-09-04T05:14:44.141Z,11.98
2022-09-04T05:16:07.548Z,12.07
2022-09-04T05:16:45.173Z,12.12
2022-09-04T05:17:44.110Z,12.23
2022-09-04T05:18:44.096Z,12.32
2022-09-04T05:19:44.085Z,12.31
2022-09-04T05:20:44.101Z,12.45
2022-09-04T05:21:44.063Z,12.46
2022-09-04T05:22:44.054Z,12.54
2022-09-04T05:23:44.044Z,12.47
2022-09-04T05:24:44.029Z,12.53
2022-09-04T05:25:44.045Z,12.56
2022-09-04T05:26:44.029Z,12.62
2022-09-04T05:27:44.000Z,12.59
2022-09-04T05:28:43.982Z,12.59
2022-09-04T05:29:43.976Z,12.71
2022-09-04T05:30:43.969Z,12.75
2022-09-04T05:31:44.085Z,12.75
2022-09-04T05:32:43.940Z,12.78
2022-09-04T05:33:43.952Z,12.85
2022-09-04T05:34:43.929Z,12.85
2022-09-04T05:35:43.930Z,12.92
2022-09-04T05:36:43.917Z,13.03
2022-09-04T05:37:43.921Z,13.05
2022-09-04T05:38:43.884Z,13.11
2022-09-04T05:39:43.943Z,13.11
2022-09-04T05:40:43.897Z,13.25
2022-09-04T05:41:43.841Z,13.19
2022-09-04T05:42:43.825Z,13.20
2022-09-04T05:43:43.817Z,13.29
2022-09-04T05:44:43.802Z,13.42
2022-09-04T05:45:43.816Z,13.46
2022-09-04T05:46:43.883Z,13.52
2022-09-04T05:47:43.778Z,13.48
2022-09-04T05:48:43.756Z,13.55
2022-09-04T05:49:43.746Z,13.64
2022-09-04T05:50:43.757Z,13.66
2022-09-04T05:51:43.747Z,13.75
2022-09-04T05:52:43.713Z,13.71
2022-09-04T05:53:43.703Z,13.70
2022-09-04T05:54:43.707Z,13.73
2022-09-04T05:55:43.696Z,13.75
2022-09-04T05:56:43.663Z,13.82
2022-09-04T05:57:43.678Z,13.81
2022-09-04T05:58:43.646Z,13.89
2022-09-04T05:59:43.896Z,13.92
2022-09-04T06:00:43.618Z,13.89
2022-09-04T06:01:43.676Z,13.97
2022-09-04T06:02:43.674Z,13.97
2022-09-04T06:03:43.586Z,14.00
2022-09-04T06:04:43.591Z,14.07
2022-09-04T06:05:43.564Z,14.18
2022-09-04T06:06:43.572Z,14.10
2022-09-04T06:07:43.542Z,14.18
2022-09-04T06:08:43.530Z,14.12
2022-09-04T06:09:43.516Z,14.18
2022-09-04T06:10:43.507Z,14.15
2022-09-04T06:11:43.513Z,14.18
2022-09-04T06:12:43.483Z,14.20
2022-09-04T06:13:43.490Z,14.24
2022-09-04T06:14:43.463Z,14.24
2022-09-04T06:15:43.495Z,14.28
2022-09-04T06:16:43.437Z,14.28
2022-09-04T06:17:43.427Z,14.27
2022-09-04T06:18:43.419Z,14.37
2022-09-04T06:19:43.409Z,14.37
2022-09-04T06:20:43.414Z,14.36
2022-09-04T06:21:43.382Z,14.42
2022-09-04T06:22:43.378Z,14.55
2022-09-04T06:23:43.361Z,14.52
2022-09-04T06:24:43.349Z,14.50
2022-09-04T06:25:43.355Z,14.54
2022-09-04T06:26:43.326Z,14.60
2022-09-04T06:27:43.316Z,14.61
2022-09-04T06:28:43.306Z,14.70
2022-09-04T06:29:43.294Z,14.68
2022-09-04T06:30:43.302Z,14.83
2022-09-04T06:31:43.271Z,14.75
2022-09-04T06:32:43.258Z,14.91
2022-09-04T06:33:43.246Z,14.96
2022-09-04T06:34:43.237Z,14.98
2022-09-04T06:35:43.414Z,15.02
2022-09-04T06:36:43.213Z,14.98
2022-09-04T06:37:43.221Z,14.94
2022-09-04T06:38:43.193Z,14.96
2022-09-04T06:39:43.272Z,14.91
2022-09-04T06:40:43.173Z,15.02
2022-09-04T06:41:43.155Z,14.94
2022-09-04T06:42:43.147Z,14.92
2022-09-04T06:43:43.134Z,14.95
2022-09-04T06:44:43.145Z,15.03
2022-09-04T06:45:43.114Z,15.14
2022-09-04T06:46:43.181Z,15.23
2022-09-04T06:47:43.088Z,15.28
2022-09-04T06:48:43.101Z,15.32
2022-09-04T06:49:43.078Z,15.31
2022-09-04T06:50:43.056Z,15.36
2022-09-04T06:51:43.045Z,15.46
2022-09-04T06:52:43.033Z,15.64
2022-09-04T06:53:43.021Z,15.69
2022-09-04T06:54:43.033Z,15.72
2022-09-04T06:55:43.000Z,15.74
2022-09-04T06:56:43.010Z,15.82
2022-09-04T06:57:42.975Z,15.93
2022-09-04T06:58:42.967Z,16.07
2022-09-04T06:59:42.973Z,16.23
2022-09-04T07:00:42.943Z,16.15
2022-09-04T07:01:43.090Z,16.28
2022-09-04T07:02:43.057Z,16.31
2022-09-04T07:03:42.908Z,16.43
2022-09-04T07:04:42.897Z,16.46
2022-09-04T07:05:42.885Z,16.52
2022-09-04T07:06:42.875Z,16.46
2022-09-04T07:07:42.879Z,16.50
2022-09-04T07:08:42.875Z,16.75
2022-09-04T07:09:42.840Z,16.88
2022-09-04T07:10:42.828Z,16.98
2022-09-04T07:11:42.817Z,17.15
2022-09-04T07:12:42.807Z,17.34
2022-09-04T07:13:42.814Z,17.54
2022-09-04T07:14:42.783Z,17.68
2022-09-04T07:15:42.845Z,17.75
2022-09-04T07:16:42.780Z,17.72
2022-09-04T07:17:42.768Z,17.79
2022-09-04T07:18:42.738Z,17.79
2022-09-04T07:19:42.726Z,17.90
2022-09-04T07:20:42.718Z,17.92
2022-09-04T07:21:42.724Z,17.97
2022-09-04T07:22:42.693Z,17.99
2022-09-04T07:23:42.681Z,17.97
2022-09-04T07:24:42.673Z,18.20
2022-09-04T07:25:42.659Z,18.33
2022-09-04T07:26:42.672Z,18.47
2022-09-04T07:27:42.643Z,18.58
2022-09-04T07:28:42.646Z,18.62
2022-09-04T07:29:42.615Z,18.76
2022-09-04T07:30:42.603Z,18.88
2022-09-04T07:31:42.654Z,18.78
2022-09-04T07:32:42.607Z,18.72
2022-09-04T07:33:42.589Z,18.92
2022-09-04T07:34:42.558Z,19.07
2022-09-04T07:35:42.546Z,19.04
2022-09-04T07:36:42.536Z,19.08
2022-09-04T07:37:42.525Z,18.99
2022-09-04T07:38:42.536Z,18.78
2022-09-04T07:39:42.570Z,18.62
2022-09-04T07:40:42.492Z,18.76
2022-09-04T07:41:42.479Z,18.85
2022-09-04T07:42:42.468Z,18.95
2022-09-04T07:43:42.457Z,18.98
2022-09-04T07:44:42.467Z,18.98
2022-09-04T07:45:42.438Z,19.08
2022-09-04T07:46:42.458Z,19.25
2022-09-04T07:47:42.411Z,19.29
2022-09-04T07:48:42.402Z,19.44
2022-09-04T07:49:42.412Z,19.58
2022-09-04T07:50:42.408Z,19.80
2022-09-04T07:51:42.371Z,19.80
2022-09-04T07:52:42.356Z,19.92
2022-09-04T07:53:42.409Z,19.76
2022-09-04T07:54:42.385Z,19.81
2022-09-04T07:55:42.322Z,19.81
2022-09-04T07:56:42.321Z,19.69
2022-09-04T07:57:42.299Z,19.62
2022-09-04T07:58:42.416Z,19.77
2022-09-04T07:59:42.282Z,19.99
2022-09-04T08:00:42.271Z,20.11
2022-09-04T08:01:42.311Z,20.26
2022-09-04T08:02:42.245Z,20.33
2022-09-04T08:03:53.731Z,20.52
2022-09-04T08:04:43.289Z,20.67
2022-09-04T08:05:42.211Z,20.72
2022-09-04T08:06:42.218Z,20.94
2022-09-04T08:07:42.186Z,21.06
2022-09-04T08:08:42.177Z,21.17
2022-09-04T08:09:42.166Z,21.21
2022-09-04T08:10:42.175Z,21.24
2022-09-04T08:11:42.144Z,21.22
2022-09-04T08:12:42.132Z,21.37
2022-09-04T08:13:42.137Z,21.50
2022-09-04T08:14:42.113Z,21.40
2022-09-04T08:15:42.869Z,21.31
2022-09-04T08:16:42.089Z,21.35
2022-09-04T08:17:42.095Z,21.32
2022-09-04T08:18:42.066Z,21.25
2022-09-04T08:19:42.056Z,21.16
2022-09-04T08:20:42.046Z,21.24
2022-09-04T08:21:42.052Z,21.42
2022-09-04T08:22:42.023Z,21.67
2022-09-04T08:23:42.012Z,21.92
2022-09-04T08:24:42.000Z,22.09
2022-09-04T08:25:41.988Z,22.15
2022-09-04T08:26:42.000Z,22.27
2022-09-04T08:27:44.453Z,22.43
2022-09-04T08:28:46.094Z,22.51
2022-09-04T08:29:41.948Z,22.82
2022-09-04T08:30:41.966Z,22.92
2022-09-04T08:31:41.941Z,23.00
2022-09-04T08:32:41.946Z,23.01
2022-09-04T08:33:41.897Z,23.22
2022-09-04T08:34:41.899Z,23.22
2022-09-04T08:35:41.874Z,23.46
2022-09-04T08:36:41.869Z,23.33
2022-09-04T08:37:41.871Z,22.90
2022-09-04T08:38:41.843Z,22.88
2022-09-04T08:39:41.954Z,22.86
2022-09-04T08:40:41.822Z,22.92
2022-09-04T08:41:41.816Z,23.33
2022-09-04T08:42:41.804Z,23.48
2022-09-04T08:43:41.793Z,23.65
2022-09-04T08:44:41.802Z,23.85
2022-09-04T08:45:42.381Z,24.05
2022-09-04T08:46:41.808Z,24.24
2022-09-04T08:47:41.744Z,24.40
2022-09-04T08:48:41.736Z,24.52
2022-09-04T08:49:41.721Z,24.40
2022-09-04T08:50:41.711Z,24.53
2022-09-04T08:51:41.722Z,24.64
2022-09-04T08:52:41.690Z,24.57
2022-09-04T08:53:41.680Z,24.68
2022-09-04T08:54:41.687Z,24.90
2022-09-04T08:55:41.654Z,25.17
2022-09-04T08:56:41.706Z,25.17
2022-09-04T08:57:41.651Z,25.25
2022-09-04T08:58:45.731Z,25.17
2022-09-04T08:59:42.622Z,25.18
2022-09-04T09:00:41.602Z,24.88
2022-09-04T09:01:41.679Z,24.88
2022-09-04T09:02:41.674Z,25.05
2022-09-04T09:03:41.565Z,25.18
2022-09-04T09:04:41.559Z,25.46
2022-09-04T09:05:41.565Z,25.30
2022-09-04T09:06:41.534Z,25.32
2022-09-04T09:07:41.521Z,25.51
2022-09-04T09:08:41.512Z,25.46
2022-09-04T09:09:41.501Z,25.36
2022-09-04T09:10:41.492Z,25.30
2022-09-04T09:11:41.498Z,25.24
2022-09-04T09:12:41.963Z,25.39
2022-09-04T09:13:41.457Z,25.32
2022-09-04T09:14:41.448Z,25.52
2022-09-04T09:15:41.458Z,25.58
2022-09-04T09:16:41.499Z,25.72
2022-09-04T09:17:41.415Z,25.83
2022-09-04T09:18:41.403Z,25.82
2022-09-04T09:19:41.409Z,25.67
2022-09-04T09:20:41.385Z,25.79
2022-09-04T09:21:41.370Z,25.94
2022-09-04T09:22:41.356Z,26.02
2022-09-04T09:23:41.366Z,26.05
2022-09-04T09:24:41.342Z,26.25
2022-09-04T09:25:44.003Z,25.95
2022-09-04T09:26:41.314Z,25.94
2022-09-04T09:27:41.304Z,25.91
2022-09-04T09:28:41.321Z,26.06
2022-09-04T09:29:41.283Z,26.05
2022-09-04T09:30:41.316Z,26.13
2022-09-04T09:31:41.266Z,26.28
2022-09-04T09:32:41.249Z,26.33
2022-09-04T09:33:41.238Z,26.48
2022-09-04T09:34:41.249Z,26.60
2022-09-04T09:35:41.213Z,26.66
2022-09-04T09:36:41.207Z,26.63
2022-09-04T09:37:41.191Z,26.76
2022-09-04T09:38:41.202Z,26.75
2022-09-04T09:39:41.233Z,26.48
2022-09-04T09:40:41.161Z,26.21
2022-09-04T09:41:41.150Z,26.17
2022-09-04T09:42:41.140Z,25.94
2022-09-04T09:43:41.125Z,25.92
2022-09-04T09:44:41.136Z,25.77
2022-09-04T09:45:41.145Z,25.99
2022-09-04T09:46:41.094Z,26.32
2022-09-04T09:47:41.087Z,26.60
2022-09-04T09:48:41.073Z,26.88
2022-09-04T09:49:41.080Z,26.70
2022-09-04T09:50:41.067Z,26.76
2022-09-04T09:51:41.038Z,25.90
2022-09-04T09:52:41.148Z,25.91
2022-09-04T09:53:46.314Z,25.97
2022-09-04T09:54:42.025Z,25.95
2022-09-04T09:55:41.058Z,25.82
2022-09-04T09:56:41.101Z,25.69
2022-09-04T09:57:40.984Z,25.60
2022-09-04T09:58:40.963Z,25.75
2022-09-04T09:59:40.951Z,25.91
2022-09-04T10:00:40.964Z,26.21
2022-09-04T10:01:41.015Z,26.45
2022-09-04T10:02:41.198Z,26.82
2022-09-04T10:03:40.911Z,27.09
2022-09-04T10:04:40.901Z,27.31
2022-09-04T10:05:41.192Z,27.47
2022-09-04T10:06:40.876Z,27.77
2022-09-04T10:07:40.883Z,27.90
2022-09-04T10:08:40.854Z,28.06
2022-09-04T10:09:40.842Z,27.99
2022-09-04T10:10:40.832Z,27.94
2022-09-04T10:11:40.823Z,27.75
2022-09-04T10:12:40.830Z,27.78
2022-09-04T10:13:40.820Z,27.57
2022-09-04T10:14:40.790Z,27.34
2022-09-04T10:15:40.778Z,27.29
2022-09-04T10:16:40.935Z,27.28
2022-09-04T10:17:40.758Z,27.27
2022-09-04T10:18:40.768Z,27.39
2022-09-04T10:19:40.757Z,27.66
2022-09-04T10:20:40.732Z,27.79
2022-09-04T10:21:40.713Z,27.87
2022-09-04T10:22:40.831Z,27.55
2022-09-04T10:23:40.697Z,27.78
2022-09-04T10:24:40.711Z,27.87
2022-09-04T10:25:40.672Z,28.00
2022-09-04T10:26:40.659Z,28.21
2022-09-04T10:27:43.929Z,28.40
2022-09-04T10:28:40.640Z,28.54
2022-09-04T10:29:40.628Z,28.18
2022-09-04T10:30:40.657Z,28.29
2022-09-04T10:31:40.606Z,28.27
2022-09-04T10:32:40.594Z,28.27
2022-09-04T10:33:40.585Z,28.34
2022-09-04T10:34:40.572Z,28.40
2022-09-04T10:35:40.583Z,28.43
2022-09-04T10:36:40.550Z,28.41
2022-09-04T10:37:40.564Z,28.52
2022-09-04T10:38:40.534Z,28.51
2022-09-04T10:39:40.572Z,28.83
2022-09-04T10:40:43.945Z,28.93
2022-09-04T10:41:41.495Z,29.02
2022-09-04T10:42:40.506Z,29.05
2022-09-04T10:43:40.477Z,29.15
2022-09-04T10:44:40.463Z,29.27
2022-09-04T10:45:40.492Z,29.24
2022-09-04T10:46:40.442Z,29.26
2022-09-04T10:47:40.432Z,29.27
2022-09-04T10:48:40.447Z,29.46
2022-09-04T10:49:40.411Z,29.60
2022-09-04T10:50:40.420Z,29.53
2022-09-04T10:51:40.401Z,29.46
2022-09-04T10:52:40.387Z,29.21
2022-09-04T10:53:40.372Z,29.26
2022-09-04T10:54:40.356Z,29.26
2022-09-04T10:55:40.376Z,29.31
2022-09-04T10:56:40.335Z,29.42
2022-09-04T10:57:40.424Z,29.48
2022-09-04T10:58:40.333Z,29.52
2022-09-04T10:59:40.306Z,29.49
2022-09-04T11:00:40.308Z,29.58
2022-09-04T11:01:40.307Z,29.60
2022-09-04T11:02:40.341Z,29.51
2022-09-04T11:03:40.260Z,29.64
2022-09-04T11:04:40.567Z,29.57
2022-09-04T11:05:40.259Z,29.63
2022-09-04T11:06:40.247Z,29.60
2022-09-04T11:07:40.217Z,29.73
2022-09-04T11:08:40.208Z,29.67
2022-09-04T11:09:40.198Z,29.63
2022-09-04T11:10:40.205Z,29.76
2022-09-04T11:11:40.175Z,29.58
2022-09-04T11:12:40.208Z,29.64
2022-09-04T11:13:40.154Z,29.67
2022-09-04T11:14:40.142Z,29.26
2022-09-04T11:15:40.132Z,28.73
2022-09-04T11:16:40.182Z,28.30
2022-09-04T11:17:40.111Z,27.70
2022-09-04T11:18:40.119Z,27.50
2022-09-04T11:19:40.089Z,27.34
2022-09-04T11:20:40.075Z,27.81
2022-09-04T11:21:40.066Z,28.02
2022-09-04T11:22:40.056Z,28.25
2022-09-04T11:23:40.075Z,28.43
2022-09-04T11:24:40.034Z,28.49
2022-09-04T11:25:40.025Z,28.49
2022-09-04T11:26:40.013Z,28.58
2022-09-04T11:27:40.005Z,28.70
2022-09-04T11:28:40.010Z,28.98
2022-09-04T11:29:39.984Z,28.92
2022-09-04T11:30:39.967Z,28.93
2022-09-04T11:31:41.068Z,29.06
2022-09-04T11:32:39.948Z,29.33
2022-09-04T11:33:39.960Z,29.55
2022-09-04T11:34:39.931Z,29.76
2022-09-04T11:35:39.947Z,29.80
2022-09-04T11:36:39.936Z,29.85
2022-09-04T11:37:39.895Z,29.87
2022-09-04T11:38:39.886Z,29.92
2022-09-04T11:39:39.990Z,29.83
2022-09-04T11:40:39.867Z,29.97
2022-09-04T11:41:39.872Z,30.07
2022-09-04T11:42:39.841Z,29.46
2022-09-04T11:43:39.836Z,29.61
2022-09-04T11:44:39.824Z,29.76
2022-09-04T11:45:39.866Z,29.92
2022-09-04T11:46:39.801Z,30.16
2022-09-04T11:47:39.808Z,30.29
2022-09-04T11:48:39.776Z,30.31
2022-09-04T11:49:39.770Z,30.42
2022-09-04T11:50:39.778Z,30.34
2022-09-04T11:51:39.746Z,30.32
2022-09-04T11:52:39.735Z,30.43
2022-09-04T11:53:39.726Z,30.42
2022-09-04T11:54:39.735Z,30.34
2022-09-04T11:55:39.705Z,30.20
2022-09-04T11:56:39.692Z,29.98
2022-09-04T11:57:39.685Z,30.24
2022-09-04T11:58:39.670Z,30.07
2022-09-04T11:59:39.688Z,30.17
2022-09-04T12:00:39.648Z,30.08
2022-09-04T12:01:40.442Z,29.94
2022-09-04T12:02:39.708Z,29.71
2022-09-04T12:03:39.661Z,29.52
2022-09-04T12:04:39.625Z,28.98
2022-09-04T12:05:39.608Z,28.95
2022-09-04T12:06:39.604Z,29.11
2022-09-04T12:07:43.306Z,29.00
2022-09-04T12:08:39.563Z,28.77
2022-09-04T12:09:39.761Z,28.61
2022-09-04T12:10:39.542Z,28.52
2022-09-04T12:11:39.536Z,28.48
2022-09-04T12:12:39.523Z,28.30
2022-09-04T12:13:39.532Z,28.21
2022-09-04T12:14:39.499Z,28.09
2022-09-04T12:15:39.490Z,28.11
2022-09-04T12:16:39.514Z,27.81
2022-09-04T12:17:39.470Z,28.00
2022-09-04T12:18:39.476Z,28.06
2022-09-04T12:19:39.446Z,28.11
2022-09-04T12:20:39.457Z,28.06
2022-09-04T12:21:39.434Z,28.12
2022-09-04T12:22:39.441Z,27.96
2022-09-04T12:23:39.408Z,27.97
2022-09-04T12:24:39.392Z,28.15
2022-09-04T12:25:39.403Z,28.33
2022-09-04T12:26:40.206Z,28.58
2022-09-04T12:27:40.359Z,28.52
2022-09-04T12:28:39.352Z,28.64
2022-09-04T12:29:39.360Z,28.61
2022-09-04T12:30:39.327Z,28.58
2022-09-04T12:31:39.424Z,28.52
2022-09-04T12:32:39.305Z,28.54
2022-09-04T12:33:39.295Z,28.43
2022-09-04T12:34:39.282Z,28.41
2022-09-04T12:35:39.275Z,28.30
2022-09-04T12:36:39.263Z,28.31
2022-09-04T12:37:39.273Z,28.33
2022-09-04T12:38:39.263Z,28.34
2022-09-04T12:39:39.274Z,28.31
2022-09-04T12:40:39.240Z,28.49
2022-09-04T12:41:39.211Z,28.49
2022-09-04T12:42:39.216Z,28.58
2022-09-04T12:43:39.292Z,28.55
2022-09-04T12:44:39.174Z,28.54
2022-09-04T12:45:39.249Z,28.55
2022-09-04T12:46:39.175Z,28.73
2022-09-04T12:47:39.146Z,28.81
2022-09-04T12:48:39.134Z,28.90
2022-09-04T12:49:39.120Z,29.11
2022-09-04T12:50:39.109Z,29.36
2022-09-04T12:51:39.341Z,29.37
2022-09-04T12:52:39.087Z,29.46